Big Sandy, Montana
Current Conditions -  °F | °C
As of 8:53 PM on Thursday 18 Dec 2014 (Local Time) from KHVR Reporting Station
Broken Clouds Broken Clouds  
Wind Chill: -8°   Ceiling: 7000
Heat Index: -4°   Visibility: 10mi
Dew Point: -6°   Wind: 6mph
Humidity: 88%   Direction: 290°WNW
Pressure: 29.9"   Gusts: NA
Location:  48.18°N, 110.11°W
Report Text: KHVR 190353Z AUTO 29005KT 10SM BKN070 M04/M06 A2990 RMK AO2 SLP164 T10391056
Loading
Personal Weather Stations






























Interactive Weather Map New forecast layout! Learn more

10-Day Weather Forecast

Advertisements
Track Severe Weather on mobile